createdAt,value
2023-03-01T00:01:41.284Z,70.30
2023-03-01T00:06:48.903Z,111.70
2023-03-01T00:11:52.770Z,105.40
2023-03-01T00:16:56.634Z,114.80
2023-03-01T00:22:00.424Z,105.40
2023-03-01T00:27:04.330Z,75.70
2023-03-01T00:32:08.612Z,86.40
2023-03-01T00:37:12.692Z,75.20
2023-03-01T00:42:17.978Z,70.30
2023-03-01T00:47:21.885Z,77.60
2023-03-01T00:52:25.801Z,73.20
2023-03-01T00:57:30.274Z,70.30
2023-03-01T01:02:35.210Z,79.70
2023-03-01T01:07:39.388Z,86.90
2023-03-01T01:12:48.522Z,90.20
2023-03-01T01:17:52.391Z,79.40
2023-03-01T01:22:56.159Z,75.50
2023-03-01T01:28:01.029Z,83.90
2023-03-01T01:33:04.725Z,81.90
2023-03-01T01:38:08.648Z,83.90
2023-03-01T01:43:29.059Z,87.60
2023-03-01T01:48:46.924Z,125.80
2023-03-01T01:53:55.268Z,154.50
2023-03-01T01:58:59.179Z,103.60
2023-03-01T02:04:03.077Z,97.30
2023-03-01T02:09:12.120Z,94.50
2023-03-01T02:14:17.163Z,94.50
2023-03-01T02:19:44.581Z,95.20
2023-03-01T02:25:06.579Z,100.90
2023-03-01T02:30:13.641Z,82.10
2023-03-01T02:35:19.539Z,93.60
2023-03-01T02:40:23.248Z,96.00
2023-03-01T02:45:28.350Z,84.70
2023-03-01T02:50:32.036Z,89.70
2023-03-01T02:55:35.828Z,92.30
2023-03-01T03:00:48.228Z,93.70
2023-03-01T03:05:53.430Z,90.50
2023-03-01T03:10:57.478Z,98.30
2023-03-01T03:16:05.011Z,101.00
2023-03-01T03:21:13.945Z,118.50
2023-03-01T03:26:25.207Z,115.20
2023-03-01T03:31:30.005Z,112.20
2023-03-01T03:36:34.405Z,117.60
2023-03-01T03:41:38.157Z,123.20
2023-03-01T03:46:41.805Z,118.30
2023-03-01T03:51:47.798Z,104.10
2023-03-01T03:56:51.392Z,104.30
2023-03-01T04:01:55.153Z,107.50
2023-03-01T04:06:58.885Z,110.90
2023-03-01T04:12:02.460Z,124.30
2023-03-01T04:17:07.204Z,113.70
2023-03-01T04:22:12.556Z,125.50
2023-03-01T04:27:16.387Z,102.70
2023-03-01T04:32:21.703Z,117.70
2023-03-01T04:37:27.131Z,104.50
2023-03-01T04:42:31.295Z,108.50
2023-03-01T04:47:39.265Z,88.60
2023-03-01T04:52:46.242Z,106.80
2023-03-01T04:57:49.918Z,107.20
2023-03-01T05:02:56.743Z,107.50
2023-03-01T05:08:03.470Z,94.30
2023-03-01T05:13:07.896Z,104.00
2023-03-01T05:18:12.714Z,96.70
2023-03-01T05:23:17.334Z,88.30
2023-03-01T05:28:21.857Z,91.30
2023-03-01T05:33:26.599Z,96.00
2023-03-01T05:38:30.292Z,121.40
2023-03-01T05:43:36.632Z,156.50
2023-03-01T05:48:41.041Z,121.60
2023-03-01T05:53:45.747Z,113.60
2023-03-01T05:58:51.147Z,121.60
2023-03-01T06:03:55.332Z,112.00
2023-03-01T06:08:59.013Z,115.00
2023-03-01T06:14:03.072Z,105.40
2023-03-01T06:19:06.862Z,114.30
2023-03-01T06:24:10.654Z,103.40
2023-03-01T06:29:15.022Z,111.50
2023-03-01T06:34:18.724Z,97.20
2023-03-01T06:39:23.955Z,99.50
2023-03-01T06:44:28.407Z,91.50
2023-03-01T06:49:32.072Z,132.10
2023-03-01T06:54:35.662Z,122.90
2023-03-01T06:59:39.376Z,121.60
2023-03-01T07:04:43.822Z,128.40
2023-03-01T07:09:50.847Z,113.80
2023-03-01T07:14:55.088Z,95.30
2023-03-01T07:19:58.825Z,128.30
2023-03-01T07:25:05.596Z,99.10
2023-03-01T07:30:12.354Z,115.80
2023-03-01T07:35:17.216Z,91.60
2023-03-01T07:40:23.260Z,92.20
2023-03-01T07:45:27.644Z,86.40
2023-03-01T07:50:32.294Z,81.40
2023-03-01T07:55:37.714Z,75.40
2023-03-01T08:00:41.672Z,75.20
2023-03-01T08:05:47.786Z,69.20
2023-03-01T08:10:53.617Z,76.40
2023-03-01T08:16:12.508Z,69.40
2023-03-01T08:21:21.097Z,70.00
2023-03-01T08:26:25.331Z,67.20
2023-03-01T08:31:38.072Z,69.00
2023-03-01T08:36:45.783Z,72.30
2023-03-01T08:41:50.596Z,72.00
2023-03-01T08:46:55.933Z,63.00
2023-03-01T08:52:02.398Z,53.70
2023-03-01T08:57:06.919Z,46.80
2023-03-01T09:02:17.226Z,49.20
2023-03-01T09:07:21.789Z,48.80
2023-03-01T09:12:27.572Z,40.50
2023-03-01T09:17:31.636Z,48.40
2023-03-01T09:22:37.006Z,39.40
2023-03-01T09:27:41.091Z,43.40
2023-03-01T09:32:46.129Z,40.30
2023-03-01T09:37:52.343Z,37.60
2023-03-01T09:43:07.585Z,32.10
2023-03-01T09:48:27.606Z,42.30
2023-03-01T09:53:37.895Z,36.20
2023-03-01T09:59:01.043Z,40.60
2023-03-01T10:04:29.857Z,35.40
2023-03-01T10:09:36.547Z,38.60
2023-03-01T10:14:59.585Z,32.10
2023-03-01T10:20:25.205Z,33.10
2023-03-01T10:25:41.812Z,31.00
2023-03-01T10:30:47.305Z,31.50
2023-03-01T10:35:51.891Z,30.90
2023-03-01T10:41:02.725Z,28.90
2023-03-01T10:46:29.288Z,27.90
2023-03-01T10:51:36.168Z,27.30
2023-03-01T10:57:01.941Z,27.90
2023-03-01T11:02:31.940Z,29.20
2023-03-01T11:07:55.321Z,31.20
2023-03-01T11:13:27.162Z,27.80
2023-03-01T11:18:46.289Z,33.00
2023-03-01T11:23:56.076Z,30.20
2023-03-01T11:29:04.173Z,24.30
2023-03-01T11:34:20.641Z,33.60
2023-03-01T11:39:53.846Z,25.10
2023-03-01T11:45:01.501Z,22.40
2023-03-01T11:50:16.756Z,17.40
2023-03-01T11:55:48.848Z,22.10
2023-03-01T12:01:15.504Z,16.10
2023-03-01T12:06:29.081Z,17.70
2023-03-01T12:11:53.048Z,13.90
2023-03-01T12:17:07.260Z,14.10
2023-03-01T12:22:27.326Z,15.80
2023-03-01T12:27:47.573Z,15.80
2023-03-01T12:33:25.475Z,19.30
2023-03-01T12:38:51.744Z,19.40
2023-03-01T12:44:07.431Z,19.20
2023-03-01T12:49:21.044Z,22.30
2023-03-01T12:54:30.247Z,25.60
2023-03-01T13:00:10.328Z,77.70
2023-03-01T13:05:35.435Z,166.70
2023-03-01T13:10:55.962Z,29.70
2023-03-01T13:16:23.031Z,21.60
2023-03-01T13:21:33.261Z,21.80
2023-03-01T13:27:09.526Z,19.70
2023-03-01T13:32:44.514Z,21.00
2023-03-01T13:37:49.189Z,21.50
2023-03-01T13:43:04.693Z,22.20
2023-03-01T13:48:20.683Z,21.90
2023-03-01T13:53:27.888Z,24.30
2023-03-01T13:58:35.665Z,20.70
2023-03-01T14:03:44.005Z,21.80
2023-03-01T14:08:50.572Z,21.90
2023-03-01T14:14:16.585Z,20.00
2023-03-01T14:19:34.702Z,19.80
2023-03-01T14:24:42.432Z,35.90
2023-03-01T14:29:57.229Z,24.60
2023-03-01T14:35:01.798Z,20.70
2023-03-01T14:40:06.613Z,22.20
2023-03-01T14:45:14.338Z,24.30
2023-03-01T14:50:43.311Z,24.40
2023-03-01T14:56:01.703Z,24.00
2023-03-01T15:01:06.326Z,20.30
2023-03-01T15:06:10.688Z,19.90
2023-03-01T15:11:30.944Z,21.40
2023-03-01T15:16:35.809Z,22.70
2023-03-01T15:21:41.134Z,21.40
2023-03-01T15:26:53.024Z,22.70
2023-03-01T15:31:59.941Z,22.50
2023-03-01T15:37:07.250Z,25.20
2023-03-01T15:42:32.526Z,21.80
2023-03-01T15:47:37.797Z,23.40
2023-03-01T15:52:42.925Z,26.20
2023-03-01T15:57:47.918Z,23.20
2023-03-01T16:02:52.214Z,31.20
2023-03-01T16:08:01.085Z,43.10
2023-03-01T16:13:05.857Z,33.40
2023-03-01T16:18:12.421Z,47.80
2023-03-01T16:23:22.263Z,35.50
2023-03-01T16:28:29.308Z,66.90
2023-03-01T16:33:36.262Z,99.50
2023-03-01T16:38:42.892Z,120.60
2023-03-01T16:43:52.686Z,66.80
2023-03-01T16:48:58.329Z,51.10
2023-03-01T16:54:05.988Z,45.10
2023-03-01T16:59:10.773Z,47.20
2023-03-01T17:04:15.562Z,50.20
2023-03-01T17:09:30.596Z,52.00
2023-03-01T17:14:40.326Z,62.80
2023-03-01T17:19:46.181Z,57.30
2023-03-01T17:24:50.804Z,52.50
2023-03-01T17:29:59.949Z,52.90
2023-03-01T17:35:06.961Z,52.80
2023-03-01T17:40:15.524Z,46.20
2023-03-01T17:45:20.514Z,39.80
2023-03-01T17:50:26.919Z,52.50
2023-03-01T17:55:35.467Z,50.20
2023-03-01T18:00:40.722Z,36.00
2023-03-01T18:05:45.466Z,57.90
2023-03-01T18:11:00.661Z,78.30
2023-03-01T18:16:10.602Z,114.80
2023-03-01T18:21:19.039Z,98.70
2023-03-01T18:26:25.604Z,80.90
2023-03-01T18:31:34.122Z,45.20
2023-03-01T18:36:41.400Z,42.40
2023-03-01T18:41:48.402Z,36.60
2023-03-01T18:46:58.672Z,34.20
2023-03-01T18:52:06.483Z,50.50
2023-03-01T18:57:13.104Z,45.40
2023-03-01T19:02:17.852Z,46.70
2023-03-01T19:07:23.001Z,44.60
2023-03-01T19:12:29.482Z,48.50
2023-03-01T19:17:37.517Z,46.40
2023-03-01T19:22:43.558Z,118.40
2023-03-01T19:27:50.087Z,143.40
2023-03-01T19:32:58.635Z,104.80
2023-03-01T19:38:06.545Z,94.10
2023-03-01T19:43:12.576Z,90.10
2023-03-01T19:48:20.742Z,91.70
2023-03-01T19:53:30.603Z,424.60
2023-03-01T19:58:39.356Z,631.70
2023-03-01T20:03:44.568Z,721.00
2023-03-01T20:08:52.215Z,1159.80
2023-03-01T20:13:59.959Z,737.60
2023-03-01T20:19:08.660Z,428.10
2023-03-01T20:24:14.785Z,259.20
2023-03-01T20:29:21.055Z,211.70
2023-03-01T20:34:28.218Z,204.30
2023-03-01T20:39:34.914Z,185.20
2023-03-01T20:44:44.999Z,185.80
2023-03-01T20:49:53.319Z,207.40
2023-03-01T20:54:58.935Z,93.90
2023-03-01T21:00:05.678Z,110.40
2023-03-01T21:05:11.101Z,418.20
2023-03-01T21:10:20.208Z,434.60
2023-03-01T21:15:32.281Z,584.60
2023-03-01T21:20:43.142Z,241.40
2023-03-01T21:25:48.762Z,234.10
2023-03-01T21:30:52.547Z,239.20
2023-03-01T21:36:04.534Z,182.10
2023-03-01T21:41:16.680Z,280.50
2023-03-01T21:46:25.979Z,268.50
2023-03-01T21:51:30.896Z,247.80
2023-03-01T21:56:39.340Z,214.70
2023-03-01T22:01:43.561Z,213.30
2023-03-01T22:06:47.907Z,207.30
2023-03-01T22:11:54.943Z,214.00
2023-03-01T22:16:59.536Z,208.00
2023-03-01T22:22:04.091Z,158.60
2023-03-01T22:27:07.921Z,136.30
2023-03-01T22:32:11.834Z,164.60
2023-03-01T22:37:16.982Z,158.90
2023-03-01T22:42:20.679Z,166.90
2023-03-01T22:47:24.376Z,166.80
2023-03-01T22:52:28.180Z,175.30
2023-03-01T22:57:32.054Z,232.20
2023-03-01T23:02:38.337Z,155.80
2023-03-01T23:07:42.372Z,159.10
2023-03-01T23:12:46.278Z,160.60
2023-03-01T23:17:50.221Z,152.00
2023-03-01T23:22:53.910Z,133.80
2023-03-01T23:27:57.501Z,144.20
2023-03-01T23:33:01.396Z,131.00
2023-03-01T23:38:05.357Z,133.10
2023-03-01T23:43:08.931Z,135.10
2023-03-01T23:48:13.833Z,136.90
2023-03-01T23:53:19.019Z,142.50
2023-03-01T23:58:28.812Z,153.10
